createdAt,value
2022-08-04T00:02:18.502Z,11.10
2022-08-04T00:04:54.617Z,12.70
2022-08-04T00:07:42.458Z,12.40
2022-08-04T00:10:13.024Z,11.10
2022-08-04T00:12:46.625Z,12.90
2022-08-04T00:15:16.650Z,12.60
2022-08-04T00:17:46.357Z,11.40
2022-08-04T00:20:18.607Z,8.70
2022-08-04T00:22:48.165Z,7.10
2022-08-04T00:25:15.004Z,9.30
2022-08-04T00:27:42.175Z,9.40
2022-08-04T00:30:10.323Z,12.10
2022-08-04T00:32:41.521Z,9.40
2022-08-04T00:35:13.853Z,9.30
2022-08-04T00:37:43.249Z,8.10
2022-08-04T00:40:46.007Z,10.90
2022-08-04T00:43:23.962Z,10.80
2022-08-04T00:46:16.180Z,7.80
2022-08-04T00:49:16.395Z,10.20
2022-08-04T00:52:32.141Z,11.20
2022-08-04T00:55:27.312Z,11.00
2022-08-04T01:00:58.889Z,11.60
2022-08-04T01:04:09.460Z,12.00
2022-08-04T01:07:04.076Z,12.00
2022-08-04T01:09:49.391Z,11.60
2022-08-04T01:12:24.987Z,9.20
2022-08-04T01:15:06.304Z,10.60
2022-08-04T01:17:35.707Z,13.40
2022-08-04T01:20:08.249Z,14.60
2022-08-04T01:23:02.874Z,14.20
2022-08-04T01:25:38.519Z,12.50
2022-08-04T01:28:30.469Z,13.40
2022-08-04T01:31:12.911Z,13.90
2022-08-04T01:33:58.591Z,12.30
2022-08-04T01:36:35.299Z,12.50
2022-08-04T01:39:23.634Z,15.30
2022-08-04T01:41:57.782Z,15.00
2022-08-04T01:44:30.909Z,11.90
2022-08-04T01:46:59.838Z,9.00
2022-08-04T01:49:30.119Z,9.60
2022-08-04T01:52:08.716Z,8.50
2022-08-04T01:54:37.769Z,12.10
2022-08-04T01:57:37.831Z,10.30
2022-08-04T01:59:53.015Z,11.00
2022-08-04T02:02:23.898Z,7.40
2022-08-04T02:04:51.629Z,10.50
2022-08-04T02:07:40.262Z,11.00
2022-08-04T02:10:18.223Z,7.40
2022-08-04T02:12:51.947Z,7.30
2022-08-04T02:15:42.651Z,13.70
2022-08-04T02:18:19.393Z,7.00
2022-08-04T02:20:48.953Z,7.60
2022-08-04T02:23:28.033Z,7.50
2022-08-04T02:26:12.602Z,8.40
2022-08-04T02:29:11.035Z,7.30
2022-08-04T02:32:03.830Z,6.90
2022-08-04T02:35:04.392Z,13.30
2022-08-04T02:37:32.628Z,8.00
2022-08-04T02:40:03.113Z,7.70
2022-08-04T02:42:31.892Z,8.30
2022-08-04T02:44:59.857Z,9.50
2022-08-04T02:48:08.243Z,6.20
2022-08-04T02:50:29.173Z,6.70
2022-08-04T02:53:00.119Z,6.60
2022-08-04T02:55:29.217Z,6.30
2022-08-04T02:57:58.125Z,7.70
2022-08-04T03:00:25.882Z,6.50
2022-08-04T03:03:02.043Z,6.60
2022-08-04T03:05:49.966Z,6.80
2022-08-04T03:08:28.501Z,6.30
2022-08-04T03:11:43.428Z,5.40
2022-08-04T03:14:28.485Z,5.40
2022-08-04T03:17:20.098Z,8.10
2022-08-04T03:20:10.542Z,7.10
2022-08-04T03:23:13.104Z,7.50
2022-08-04T03:26:38.524Z,6.00
2022-08-04T03:29:26.056Z,9.60
2022-08-04T03:32:29.221Z,5.20
2022-08-04T03:35:23.334Z,6.60
2022-08-04T03:38:05.082Z,7.80
2022-08-04T03:41:00.351Z,6.60
2022-08-04T03:44:01.109Z,9.50
2022-08-04T03:46:46.735Z,8.90
2022-08-04T03:49:40.227Z,7.00
2022-08-04T03:52:49.151Z,7.70
2022-08-04T03:55:36.261Z,7.50
2022-08-04T03:58:34.172Z,6.90
2022-08-04T04:01:17.333Z,8.20
2022-08-04T04:04:12.498Z,9.90
2022-08-04T04:06:57.310Z,8.40
2022-08-04T04:10:07.386Z,7.00
2022-08-04T04:12:43.617Z,10.60
2022-08-04T04:15:28.997Z,8.20
2022-08-04T04:18:16.538Z,9.00
2022-08-04T04:21:04.948Z,9.10
2022-08-04T04:23:50.428Z,6.40
2022-08-04T04:26:44.750Z,7.40
2022-08-04T04:29:38.091Z,8.80
2022-08-04T04:32:28.228Z,5.80
2022-08-04T04:35:10.731Z,8.40
2022-08-04T04:37:54.463Z,8.70
2022-08-04T04:40:30.855Z,4.90
2022-08-04T04:43:50.859Z,5.20
2022-08-04T04:46:36.478Z,5.40
2022-08-04T04:49:22.767Z,7.10
2022-08-04T04:51:57.856Z,7.00
2022-08-04T04:55:05.957Z,6.20
2022-08-04T04:57:54.748Z,6.50
2022-08-04T05:00:25.824Z,5.20
2022-08-04T05:03:01.098Z,6.80
2022-08-04T05:05:47.195Z,5.40
2022-08-04T05:08:43.945Z,6.60
2022-08-04T05:11:48.631Z,4.10
2022-08-04T05:14:41.394Z,7.40
2022-08-04T05:17:25.060Z,5.00
2022-08-04T05:22:24.931Z,7.90
2022-08-04T05:25:01.531Z,4.20
2022-08-04T05:27:39.697Z,6.20
2022-08-04T05:30:08.875Z,5.20
2022-08-04T05:32:44.175Z,2.90
2022-08-04T05:35:38.961Z,4.80
2022-08-04T05:38:07.433Z,4.20
2022-08-04T05:40:34.369Z,3.10
2022-08-04T05:43:01.910Z,5.40
2022-08-04T05:45:29.880Z,5.60
2022-08-04T05:48:08.741Z,3.80
2022-08-04T05:50:36.426Z,4.60
2022-08-04T05:53:05.677Z,3.30
2022-08-04T05:55:58.286Z,4.70
2022-08-04T05:58:21.366Z,2.50
2022-08-04T06:00:52.515Z,4.90
2022-08-04T06:03:20.845Z,4.30
2022-08-04T06:05:48.630Z,3.80
2022-08-04T06:08:15.432Z,4.50
2022-08-04T06:10:45.592Z,7.70
2022-08-04T06:13:48.018Z,3.50
2022-08-04T06:16:08.317Z,5.30
2022-08-04T06:20:01.891Z,4.50
2022-08-04T06:21:43.961Z,4.90
2022-08-04T06:24:17.207Z,3.60
2022-08-04T06:26:46.769Z,6.50
2022-08-04T06:29:23.230Z,3.40
2022-08-04T06:32:27.960Z,5.10
2022-08-04T06:34:46.980Z,5.00
2022-08-04T06:37:41.415Z,3.50
2022-08-04T06:40:04.134Z,5.10
2022-08-04T06:42:52.194Z,4.70
2022-08-04T06:45:19.820Z,4.80
2022-08-04T06:47:47.552Z,4.30
2022-08-04T06:51:25.042Z,3.40
2022-08-04T06:53:04.193Z,6.70
2022-08-04T06:55:32.894Z,3.90
2022-08-04T06:58:03.916Z,3.30
2022-08-04T07:00:31.751Z,6.10
2022-08-04T07:02:59.342Z,5.00
2022-08-04T07:05:26.256Z,6.70
2022-08-04T07:07:58.029Z,8.50
2022-08-04T07:10:27.327Z,2.90
2022-08-04T07:12:59.215Z,3.00
2022-08-04T07:15:27.173Z,4.30
2022-08-04T07:17:59.287Z,5.60
2022-08-04T07:20:35.289Z,7.30
2022-08-04T07:23:06.657Z,4.50
2022-08-04T07:26:00.877Z,4.20
2022-08-04T07:28:28.983Z,4.60
2022-08-04T07:31:02.807Z,2.70
2022-08-04T07:33:29.749Z,3.60
2022-08-04T07:36:05.070Z,11.50
2022-08-04T07:38:37.432Z,3.00
2022-08-04T07:41:35.362Z,5.20
2022-08-04T07:43:54.264Z,4.50
2022-08-04T07:46:21.433Z,5.10
2022-08-04T07:48:49.185Z,8.50
2022-08-04T07:51:16.918Z,6.90
2022-08-04T07:53:54.714Z,8.90
2022-08-04T07:56:25.045Z,5.60
2022-08-04T07:58:51.859Z,2.70
2022-08-04T08:01:19.439Z,2.60
2022-08-04T08:03:47.865Z,3.60
2022-08-04T08:06:17.200Z,5.20
2022-08-04T08:09:02.076Z,4.30
2022-08-04T08:12:36.636Z,2.00
2022-08-04T08:14:27.798Z,1.90
2022-08-04T08:16:54.510Z,3.60
2022-08-04T08:19:21.194Z,1.90
2022-08-04T08:22:00.074Z,2.70
2022-08-04T08:24:29.492Z,2.40
2022-08-04T08:26:57.458Z,3.10
2022-08-04T08:29:25.505Z,2.20
2022-08-04T08:31:57.265Z,2.70
2022-08-04T08:34:28.942Z,6.50
2022-08-04T08:37:02.451Z,4.20
2022-08-04T08:39:38.243Z,2.60
2022-08-04T08:42:35.964Z,2.70
2022-08-04T08:45:36.929Z,2.00
2022-08-04T08:48:21.013Z,4.40
2022-08-04T08:51:11.274Z,2.70
2022-08-04T08:53:44.777Z,2.20
2022-08-04T08:56:16.174Z,2.40
2022-08-04T08:59:25.913Z,2.30
2022-08-04T09:02:17.835Z,3.50
2022-08-04T09:04:45.950Z,3.20
2022-08-04T09:07:34.934Z,3.40
2022-08-04T09:10:30.586Z,2.40
2022-08-04T09:13:16.294Z,3.40
2022-08-04T09:16:12.907Z,4.60
2022-08-04T09:18:55.800Z,3.90
2022-08-04T09:21:43.434Z,2.80
2022-08-04T09:24:35.249Z,3.70
2022-08-04T09:27:13.981Z,2.90
2022-08-04T09:30:03.817Z,1.90
2022-08-04T09:32:44.273Z,5.60
2022-08-04T09:35:46.461Z,1.90
2022-08-04T09:38:41.914Z,2.10
2022-08-04T09:41:48.329Z,3.90
2022-08-04T09:44:50.632Z,3.60
2022-08-04T09:47:40.199Z,2.10
2022-08-04T09:50:34.502Z,5.10
2022-08-04T09:53:24.312Z,5.60
2022-08-04T09:56:19.175Z,3.70
2022-08-04T09:59:12.063Z,2.90
2022-08-04T10:01:44.261Z,3.30
2022-08-04T10:04:19.234Z,5.20
2022-08-04T10:07:17.885Z,2.30
2022-08-04T10:09:52.022Z,1.80
2022-08-04T10:12:32.105Z,3.80
2022-08-04T10:15:16.563Z,4.30
2022-08-04T10:18:10.232Z,4.30
2022-08-04T10:21:01.353Z,5.80
2022-08-04T10:24:00.137Z,3.50
2022-08-04T10:26:34.323Z,4.60
2022-08-04T10:29:16.795Z,6.70
2022-08-04T10:31:56.774Z,5.90
2022-08-04T10:34:29.565Z,1.70
2022-08-04T10:40:07.001Z,2.20
2022-08-04T10:42:42.451Z,3.20
2022-08-04T10:45:26.357Z,2.40
2022-08-04T10:48:34.163Z,5.40
2022-08-04T10:51:20.532Z,3.90
2022-08-04T10:53:54.981Z,4.50
2022-08-04T10:56:31.405Z,2.00
2022-08-04T10:59:03.687Z,2.00
2022-08-04T11:02:01.283Z,3.00
2022-08-04T11:04:40.951Z,2.20
2022-08-04T11:07:08.428Z,5.10
2022-08-04T11:09:35.410Z,2.30
2022-08-04T11:12:21.097Z,1.80
2022-08-04T11:15:11.372Z,11.20
2022-08-04T11:17:43.220Z,3.10
2022-08-04T11:20:38.235Z,1.90
2022-08-04T11:23:10.218Z,1.60
2022-08-04T11:25:51.794Z,2.60
2022-08-04T11:28:32.251Z,2.10
2022-08-04T11:31:16.130Z,1.70
2022-08-04T11:33:58.336Z,2.10
2022-08-04T11:36:41.484Z,3.40
2022-08-04T11:39:35.044Z,3.20
2022-08-04T11:42:21.175Z,3.50
2022-08-04T11:45:18.624Z,3.80
2022-08-04T11:48:22.638Z,3.30
2022-08-04T11:50:54.015Z,2.60
2022-08-04T11:53:26.754Z,5.40
2022-08-04T11:56:15.224Z,3.50
2022-08-04T11:59:00.956Z,5.20
2022-08-04T12:01:42.890Z,3.80
2022-08-04T12:04:42.839Z,3.00
2022-08-04T12:07:42.285Z,3.20
2022-08-04T12:10:41.779Z,3.20
2022-08-04T12:13:34.887Z,1.60
2022-08-04T12:16:17.440Z,2.20
2022-08-04T12:18:46.862Z,3.70
2022-08-04T12:21:38.820Z,5.40
2022-08-04T12:24:19.800Z,3.60
2022-08-04T12:26:55.316Z,1.50
2022-08-04T12:29:23.229Z,1.90
2022-08-04T12:32:21.746Z,2.20
2022-08-04T12:35:07.445Z,4.90
2022-08-04T12:37:56.230Z,2.20
2022-08-04T12:40:30.115Z,3.50
2022-08-04T12:43:17.477Z,2.20
2022-08-04T12:45:49.249Z,3.70
2022-08-04T12:48:21.425Z,2.40
2022-08-04T12:50:53.338Z,3.70
2022-08-04T12:53:31.769Z,3.70
2022-08-04T12:56:01.358Z,5.30
2022-08-04T12:58:42.824Z,2.90
2022-08-04T13:02:05.753Z,4.90
2022-08-04T13:04:29.039Z,5.10
2022-08-04T13:07:11.540Z,3.90
2022-08-04T13:09:38.727Z,2.60
2022-08-04T13:12:12.479Z,6.00
2022-08-04T13:14:44.837Z,4.70
2022-08-04T13:17:12.055Z,3.80
2022-08-04T13:19:47.072Z,6.20
2022-08-04T13:22:26.687Z,3.50
2022-08-04T13:24:56.915Z,3.90
2022-08-04T13:27:46.342Z,2.80
2022-08-04T13:30:23.192Z,3.10
2022-08-04T13:33:01.482Z,3.70
2022-08-04T13:35:54.721Z,3.40
2022-08-04T13:38:21.379Z,2.70
2022-08-04T13:40:49.060Z,2.30
2022-08-04T13:44:15.495Z,5.00
2022-08-04T13:46:33.631Z,4.10
2022-08-04T13:49:30.943Z,5.30
2022-08-04T13:52:01.518Z,3.20
2022-08-04T13:54:46.840Z,4.80
2022-08-04T13:57:28.994Z,5.00
2022-08-04T14:00:02.975Z,3.80
2022-08-04T14:02:42.168Z,2.40
2022-08-04T14:05:32.551Z,2.20
2022-08-04T14:08:19.858Z,4.10
2022-08-04T14:13:41.983Z,3.80
2022-08-04T14:16:16.976Z,4.10
2022-08-04T14:18:43.899Z,4.50
2022-08-04T14:21:20.225Z,5.90
2022-08-04T14:23:59.757Z,7.20
2022-08-04T14:26:33.936Z,3.90
2022-08-04T14:29:26.923Z,3.60
2022-08-04T14:32:05.568Z,3.70
2022-08-04T14:34:41.522Z,4.80
2022-08-04T14:37:18.480Z,3.00
2022-08-04T14:40:08.020Z,2.70
2022-08-04T14:42:41.268Z,2.10
2022-08-04T14:45:08.376Z,6.40
2022-08-04T14:47:52.038Z,4.30
2022-08-04T14:50:32.227Z,4.40
2022-08-04T14:53:10.467Z,3.00
2022-08-04T14:55:38.697Z,2.60
2022-08-04T14:58:33.911Z,3.80
2022-08-04T15:00:57.639Z,2.80
2022-08-04T15:03:24.730Z,3.20
2022-08-04T15:05:55.269Z,4.50
2022-08-04T15:08:31.361Z,4.30
2022-08-04T15:11:02.892Z,4.80
2022-08-04T15:13:31.912Z,2.70
2022-08-04T15:16:07.278Z,2.40
2022-08-04T15:18:36.974Z,2.60
2022-08-04T15:21:05.281Z,3.80
2022-08-04T15:23:38.602Z,2.70
2022-08-04T15:26:12.211Z,3.20
2022-08-04T15:28:41.900Z,10.30
2022-08-04T15:31:10.556Z,5.20
2022-08-04T15:33:56.660Z,2.60
2022-08-04T15:36:33.236Z,4.30
2022-08-04T15:39:11.017Z,4.40
2022-08-04T15:41:55.354Z,2.80
2022-08-04T15:45:15.635Z,3.40
2022-08-04T15:47:42.829Z,2.40
2022-08-04T15:50:27.945Z,2.50
2022-08-04T15:53:01.030Z,3.70
2022-08-04T15:55:39.557Z,4.70
2022-08-04T15:58:15.448Z,3.30
2022-08-04T16:00:53.380Z,2.90
2022-08-04T16:03:59.160Z,4.50
2022-08-04T16:06:21.963Z,5.70
2022-08-04T16:08:57.974Z,4.40
2022-08-04T16:11:32.342Z,4.70
2022-08-04T16:13:59.781Z,5.70
2022-08-04T16:16:41.731Z,6.10
2022-08-04T16:19:34.947Z,2.90
2022-08-04T16:22:04.400Z,4.30
2022-08-04T16:24:38.929Z,3.40
2022-08-04T16:27:09.650Z,3.30
2022-08-04T16:29:46.690Z,2.50
2022-08-04T16:32:16.286Z,4.00
2022-08-04T16:34:56.867Z,4.10
2022-08-04T16:37:34.568Z,4.00
2022-08-04T16:40:22.972Z,5.40
2022-08-04T16:42:50.068Z,3.30
2022-08-04T16:45:18.187Z,3.30
2022-08-04T16:47:47.664Z,2.50
2022-08-04T16:50:17.928Z,3.90
2022-08-04T16:52:46.250Z,2.50
2022-08-04T16:55:21.455Z,3.80
2022-08-04T16:57:56.715Z,3.10
2022-08-04T17:00:36.216Z,5.40
2022-08-04T17:03:07.498Z,3.10
2022-08-04T17:05:38.315Z,3.40
2022-08-04T17:08:29.080Z,4.60
2022-08-04T17:10:55.658Z,3.30
2022-08-04T17:14:02.054Z,3.40
2022-08-04T17:16:20.746Z,2.90
2022-08-04T17:18:54.167Z,4.60
2022-08-04T17:21:30.914Z,6.00
2022-08-04T17:24:12.814Z,3.00
2022-08-04T17:26:45.337Z,5.70
2022-08-04T17:29:20.026Z,5.90
2022-08-04T17:31:47.870Z,5.00
2022-08-04T17:34:19.140Z,3.50
2022-08-04T17:36:48.107Z,4.90
2022-08-04T17:39:27.009Z,5.50
2022-08-04T17:41:56.929Z,2.90
2022-08-04T17:44:36.586Z,4.70
2022-08-04T17:47:18.820Z,5.10
2022-08-04T17:49:52.774Z,4.00
2022-08-04T17:52:45.081Z,7.20
2022-08-04T17:55:16.344Z,3.80
2022-08-04T17:57:52.464Z,4.00
2022-08-04T18:00:19.862Z,3.30
2022-08-04T18:02:54.099Z,3.10
2022-08-04T18:05:50.185Z,7.30
2022-08-04T18:08:45.352Z,6.00
2022-08-04T18:11:04.302Z,3.60
2022-08-04T18:13:31.387Z,5.20
2022-08-04T18:16:22.860Z,4.00
2022-08-04T18:19:12.420Z,8.20
2022-08-04T18:21:46.478Z,15.00
2022-08-04T18:24:34.448Z,8.50
2022-08-04T18:27:15.078Z,3.40
2022-08-04T18:30:15.497Z,5.50
2022-08-04T18:32:32.955Z,8.50
2022-08-04T18:35:05.201Z,6.00
2022-08-04T18:40:26.766Z,5.70
2022-08-04T18:43:00.162Z,5.70
2022-08-04T18:45:34.719Z,8.20
2022-08-04T18:51:10.226Z,6.10
2022-08-04T18:53:37.524Z,3.80
2022-08-04T18:56:06.075Z,8.30
2022-08-04T18:58:33.688Z,7.60
2022-08-04T19:01:00.651Z,5.70
2022-08-04T19:03:32.935Z,4.00
2022-08-04T19:06:01.500Z,11.20
2022-08-04T19:08:34.478Z,5.80
2022-08-04T19:11:36.925Z,4.80
2022-08-04T19:13:54.602Z,7.20
2022-08-04T19:16:30.569Z,9.10
2022-08-04T19:19:00.127Z,4.90
2022-08-04T19:22:00.393Z,5.10
2022-08-04T19:24:31.675Z,7.90
2022-08-04T19:27:06.348Z,8.40
2022-08-04T19:29:37.167Z,6.30
2022-08-04T19:32:14.154Z,5.20
2022-08-04T19:34:46.234Z,8.70
2022-08-04T19:37:56.889Z,8.80
2022-08-04T19:40:06.180Z,6.10
2022-08-04T19:42:33.035Z,5.20
2022-08-04T19:45:00.511Z,7.30
2022-08-04T19:48:12.017Z,5.90
2022-08-04T19:50:15.902Z,7.80
2022-08-04T19:52:51.559Z,9.50
2022-08-04T19:58:10.489Z,9.70
2022-08-04T20:00:40.392Z,6.50
2022-08-04T20:03:12.739Z,13.40
2022-08-04T20:05:55.189Z,7.80
2022-08-04T20:08:33.882Z,9.00
2022-08-04T20:11:00.449Z,6.20
2022-08-04T20:13:36.971Z,6.40
2022-08-04T20:16:28.672Z,5.80
2022-08-04T20:21:56.021Z,12.60
2022-08-04T20:24:39.944Z,11.30
2022-08-04T20:27:16.091Z,10.00
2022-08-04T20:29:48.293Z,10.80
2022-08-04T20:32:31.881Z,11.30
2022-08-04T20:34:58.710Z,12.40
2022-08-04T20:37:54.791Z,9.00
2022-08-04T20:40:12.883Z,9.30
2022-08-04T20:42:40.168Z,10.30
2022-08-04T20:45:16.327Z,11.10
2022-08-04T20:47:45.513Z,7.10
2022-08-04T20:50:29.897Z,7.60
2022-08-04T20:52:58.088Z,8.90
2022-08-04T20:55:26.569Z,8.30
2022-08-04T20:58:02.559Z,9.40
2022-08-04T21:00:30.865Z,7.80
2022-08-04T21:02:58.757Z,12.10
2022-08-04T21:05:26.401Z,7.20
2022-08-04T21:07:56.655Z,8.20
2022-08-04T21:10:24.748Z,6.90
2022-08-04T21:12:53.476Z,8.90
2022-08-04T21:15:24.663Z,7.60
2022-08-04T21:17:59.524Z,8.40
2022-08-04T21:23:18.860Z,7.50
2022-08-04T21:25:45.261Z,7.30
2022-08-04T21:28:20.489Z,8.00
2022-08-04T21:30:52.409Z,6.90
2022-08-04T21:33:23.161Z,10.00
2022-08-04T21:35:54.207Z,8.80
2022-08-04T21:38:41.753Z,10.90
2022-08-04T21:41:08.440Z,10.10
2022-08-04T21:43:43.182Z,11.20
2022-08-04T21:46:10.284Z,12.00
2022-08-04T21:48:39.197Z,9.10
2022-08-04T21:51:55.683Z,11.80
2022-08-04T21:54:09.143Z,7.70
2022-08-04T21:56:37.931Z,7.70
2022-08-04T21:59:11.497Z,8.30
2022-08-04T22:01:50.323Z,8.10
2022-08-04T22:04:19.283Z,8.20
2022-08-04T22:06:51.632Z,10.00
2022-08-04T22:09:21.601Z,9.90
2022-08-04T22:11:50.755Z,12.00
2022-08-04T22:14:27.129Z,10.40
2022-08-04T22:16:56.706Z,9.00
2022-08-04T22:19:39.640Z,9.40
2022-08-04T22:22:12.546Z,7.10
2022-08-04T22:24:40.553Z,13.00
2022-08-04T22:27:11.426Z,7.60
2022-08-04T22:29:39.408Z,9.30
2022-08-04T22:32:11.527Z,8.30
2022-08-04T22:34:39.612Z,8.20
2022-08-04T22:37:12.775Z,10.20
2022-08-04T22:39:56.117Z,10.00
2022-08-04T22:42:23.088Z,7.90
2022-08-04T22:44:49.476Z,8.20
2022-08-04T22:47:20.223Z,7.70
2022-08-04T22:49:56.590Z,8.80
2022-08-04T22:52:31.954Z,12.90
2022-08-04T22:54:59.528Z,9.30
2022-08-04T22:57:43.041Z,9.60
2022-08-04T23:00:11.353Z,9.60
2022-08-04T23:02:37.915Z,8.70
2022-08-04T23:05:06.025Z,8.80
2022-08-04T23:07:34.021Z,9.10
2022-08-04T23:10:16.481Z,9.10
2022-08-04T23:12:51.359Z,8.40
2022-08-04T23:15:18.255Z,14.00
2022-08-04T23:17:47.918Z,8.80
2022-08-04T23:20:23.649Z,7.90
2022-08-04T23:23:00.614Z,9.00
2022-08-04T23:26:08.384Z,10.30
2022-08-04T23:28:32.033Z,7.70
2022-08-04T23:30:58.508Z,7.80
2022-08-04T23:33:24.897Z,9.10
2022-08-04T23:36:11.934Z,8.50
2022-08-04T23:38:39.642Z,9.20
2022-08-04T23:41:13.552Z,11.50
2022-08-04T23:43:55.052Z,7.90
2022-08-04T23:46:22.834Z,7.80
2022-08-04T23:48:51.514Z,9.90
2022-08-04T23:51:19.171Z,9.00
2022-08-04T23:54:02.483Z,10.20
2022-08-04T23:56:32.261Z,10.30
2022-08-04T23:59:00.258Z,9.00
